createdAt,value
2019-05-17T00:01:27.211Z,12.20
2019-05-17T00:03:57.693Z,12.20
2019-05-17T00:06:28.501Z,12.10
2019-05-17T00:08:59.474Z,12.10
2019-05-17T00:11:30.453Z,12.10
2019-05-17T00:14:01.041Z,12.00
2019-05-17T00:16:31.891Z,12.00
2019-05-17T00:19:02.634Z,11.90
2019-05-17T00:21:33.489Z,11.90
2019-05-17T00:24:06.489Z,11.80
2019-05-17T00:26:39.317Z,11.80
2019-05-17T00:29:08.850Z,11.80
2019-05-17T00:31:39.683Z,11.70
2019-05-17T00:34:10.425Z,11.70
2019-05-17T00:36:41.263Z,11.60
2019-05-17T00:39:16.666Z,11.70
2019-05-17T00:41:48.874Z,11.70
2019-05-17T00:44:19.446Z,11.60
2019-05-17T00:46:49.904Z,11.60
2019-05-17T00:49:20.693Z,11.60
2019-05-17T00:51:51.506Z,11.50
2019-05-17T00:54:22.371Z,11.50
2019-05-17T00:56:53.170Z,11.40
2019-05-17T00:59:26.191Z,11.40
2019-05-17T01:01:56.523Z,11.30
2019-05-17T01:04:27.675Z,11.30
2019-05-17T01:06:59.365Z,11.40
2019-05-17T01:09:30.331Z,11.30
2019-05-17T01:12:01.084Z,11.20
2019-05-17T01:14:32.142Z,11.20
2019-05-17T01:17:03.026Z,11.20
2019-05-17T01:19:36.541Z,11.10
2019-05-17T01:22:07.690Z,11.10
2019-05-17T01:24:38.618Z,11.10
2019-05-17T01:27:09.144Z,11.10
2019-05-17T01:29:39.935Z,11.00
2019-05-17T01:32:10.505Z,11.00
2019-05-17T01:34:41.333Z,10.90
2019-05-17T01:37:12.098Z,10.80
2019-05-17T01:39:42.773Z,10.80
2019-05-17T01:42:13.499Z,10.70
2019-05-17T01:44:44.289Z,10.70
2019-05-17T01:47:16.643Z,10.70
2019-05-17T01:49:47.521Z,10.70
2019-05-17T01:52:18.357Z,10.70
2019-05-17T01:54:48.994Z,10.70
2019-05-17T01:57:20.757Z,10.60
2019-05-17T01:59:51.787Z,10.50
2019-05-17T02:02:28.286Z,10.40
2019-05-17T02:04:59.405Z,10.40
2019-05-17T02:07:29.952Z,10.40
2019-05-17T02:10:01.004Z,10.40
2019-05-17T02:12:31.879Z,10.40
2019-05-17T02:15:02.698Z,10.30
2019-05-17T02:17:34.540Z,10.30
2019-05-17T02:20:06.438Z,10.20
2019-05-17T02:22:37.328Z,10.20
2019-05-17T02:25:08.382Z,10.20
2019-05-17T02:27:44.586Z,10.20
2019-05-17T02:30:14.763Z,10.20
2019-05-17T02:32:45.769Z,10.20
2019-05-17T02:35:16.666Z,10.20
2019-05-17T02:37:48.782Z,10.20
2019-05-17T02:40:22.526Z,10.10
2019-05-17T02:42:53.567Z,10.10
2019-05-17T02:45:24.512Z,10.10
2019-05-17T02:47:55.203Z,10.10
2019-05-17T02:50:25.824Z,10.10
2019-05-17T02:52:56.569Z,10.10
2019-05-17T02:55:27.168Z,10.20
2019-05-17T02:57:58.273Z,10.10
2019-05-17T03:00:33.308Z,10.10
2019-05-17T03:03:03.396Z,10.10
2019-05-17T03:05:34.445Z,10.10
2019-05-17T03:08:05.168Z,10.10
2019-05-17T03:10:35.914Z,10.10
2019-05-17T03:13:06.494Z,10.20
2019-05-17T03:15:38.478Z,10.20
2019-05-17T03:18:09.278Z,10.20
2019-05-17T03:20:42.940Z,10.20
2019-05-17T03:23:12.847Z,10.20
2019-05-17T03:25:43.996Z,10.20
2019-05-17T03:28:15.785Z,10.20
2019-05-17T03:30:47.495Z,10.20
2019-05-17T03:33:18.653Z,10.20
2019-05-17T03:35:55.926Z,10.20
2019-05-17T03:38:22.822Z,10.30
2019-05-17T03:41:18.608Z,10.30
2019-05-17T03:43:25.436Z,10.30
2019-05-17T03:45:56.009Z,10.40
2019-05-17T03:48:26.457Z,10.40
2019-05-17T03:50:57.406Z,10.40
2019-05-17T03:53:28.034Z,10.40
2019-05-17T03:55:58.901Z,10.50
2019-05-17T03:58:33.019Z,10.50
2019-05-17T04:01:04.189Z,10.50
2019-05-17T04:03:35.673Z,10.50
2019-05-17T04:06:06.530Z,10.50
2019-05-17T04:08:38.397Z,10.60
2019-05-17T04:11:22.177Z,10.60
2019-05-17T04:13:43.025Z,10.60
2019-05-17T04:16:14.173Z,10.70
2019-05-17T04:18:45.146Z,10.70
2019-05-17T04:21:15.833Z,10.80
2019-05-17T04:23:46.749Z,10.80
2019-05-17T04:26:17.389Z,10.80
2019-05-17T04:28:49.054Z,10.90
2019-05-17T04:31:22.521Z,10.90
2019-05-17T04:33:53.677Z,11.00
2019-05-17T04:36:24.621Z,11.00
2019-05-17T04:38:55.690Z,11.00
2019-05-17T04:41:39.508Z,11.00
2019-05-17T04:43:58.617Z,11.00
2019-05-17T04:46:32.411Z,11.10
2019-05-17T04:49:02.860Z,11.10
2019-05-17T04:51:33.992Z,11.20
2019-05-17T04:54:04.919Z,11.20
2019-05-17T04:56:35.977Z,11.20
2019-05-17T04:59:06.712Z,11.30
2019-05-17T05:01:37.531Z,11.30
2019-05-17T05:04:08.747Z,11.40
2019-05-17T05:06:39.563Z,11.40
2019-05-17T05:09:12.684Z,11.40
2019-05-17T05:11:53.362Z,11.50
2019-05-17T05:14:15.049Z,11.50
2019-05-17T05:16:47.789Z,11.60
2019-05-17T05:19:18.385Z,11.60
2019-05-17T05:21:51.895Z,11.70
2019-05-17T05:24:22.230Z,11.70
2019-05-17T05:26:53.598Z,11.80
2019-05-17T05:29:24.413Z,11.90
2019-05-17T05:31:55.090Z,11.90
2019-05-17T05:34:25.794Z,12.00
2019-05-17T05:36:56.660Z,12.00
2019-05-17T05:39:27.237Z,12.10
2019-05-17T05:42:06.943Z,12.20
2019-05-17T05:44:32.045Z,12.20
2019-05-17T05:47:02.533Z,12.30
2019-05-17T05:49:33.288Z,12.30
2019-05-17T05:52:04.365Z,12.40
2019-05-17T05:54:35.290Z,12.50
2019-05-17T05:57:06.094Z,12.50
2019-05-17T05:59:36.929Z,12.60
2019-05-17T06:02:07.766Z,12.60
2019-05-17T06:04:38.553Z,12.70
2019-05-17T06:07:09.473Z,12.80
2019-05-17T06:09:42.215Z,12.90
2019-05-17T06:12:23.311Z,13.00
2019-05-17T06:14:44.731Z,13.00
2019-05-17T06:17:15.451Z,13.10
2019-05-17T06:19:46.422Z,13.20
2019-05-17T06:22:17.294Z,13.20
2019-05-17T06:24:48.369Z,13.30
2019-05-17T06:27:21.398Z,13.40
2019-05-17T06:29:51.632Z,13.50
2019-05-17T06:32:22.857Z,13.50
2019-05-17T06:34:53.691Z,13.70
2019-05-17T06:37:24.434Z,13.70
2019-05-17T06:39:55.041Z,13.80
2019-05-17T06:42:37.416Z,13.90
2019-05-17T06:44:58.458Z,14.00
2019-05-17T06:47:29.142Z,14.20
2019-05-17T06:50:02.523Z,14.30
2019-05-17T06:52:32.703Z,14.40
2019-05-17T06:55:05.821Z,14.60
2019-05-17T06:57:35.901Z,14.70
2019-05-17T07:00:12.559Z,14.80
2019-05-17T07:02:41.258Z,14.90
2019-05-17T07:05:15.303Z,15.10
2019-05-17T07:07:46.013Z,15.30
2019-05-17T07:10:19.463Z,15.50
2019-05-17T07:12:57.848Z,15.70
2019-05-17T07:15:21.741Z,15.90
2019-05-17T07:17:53.494Z,16.20
2019-05-17T07:20:24.091Z,16.40
2019-05-17T07:22:54.642Z,16.60
2019-05-17T07:25:25.362Z,16.90
2019-05-17T07:27:56.041Z,17.10
2019-05-17T07:30:26.522Z,17.40
2019-05-17T07:32:57.054Z,17.60
2019-05-17T07:35:29.897Z,17.80
2019-05-17T07:38:00.249Z,18.00
2019-05-17T07:40:30.777Z,18.20
2019-05-17T07:43:10.616Z,18.40
2019-05-17T07:45:33.895Z,18.60
2019-05-17T07:48:04.755Z,18.70
2019-05-17T07:50:35.618Z,18.90
2019-05-17T07:53:06.569Z,19.10
2019-05-17T07:55:39.644Z,19.30
2019-05-17T07:58:10.335Z,19.50
2019-05-17T08:00:41.195Z,19.80
2019-05-17T08:03:13.296Z,20.00
2019-05-17T08:05:44.509Z,20.30
2019-05-17T08:08:15.425Z,20.50
2019-05-17T08:10:47.282Z,20.70
2019-05-17T08:13:27.299Z,21.00
2019-05-17T08:15:50.547Z,21.30
2019-05-17T08:18:23.865Z,21.50
2019-05-17T08:20:54.865Z,21.80
2019-05-17T08:23:25.681Z,22.10
2019-05-17T08:25:56.551Z,22.30
2019-05-17T08:28:27.462Z,22.60
2019-05-17T08:31:01.117Z,22.80
2019-05-17T08:33:31.345Z,23.10
2019-05-17T08:36:02.386Z,23.30
2019-05-17T08:38:33.543Z,23.60
2019-05-17T08:41:04.441Z,23.80
2019-05-17T08:43:42.528Z,24.10
2019-05-17T08:46:08.166Z,24.30
2019-05-17T08:48:40.216Z,24.50
2019-05-17T08:51:11.080Z,24.70
2019-05-17T08:53:41.647Z,24.90
2019-05-17T08:56:12.209Z,25.10
2019-05-17T08:58:43.270Z,25.40
2019-05-17T09:01:14.078Z,25.60
2019-05-17T09:03:44.685Z,25.80
2019-05-17T09:06:15.275Z,26.10
2019-05-17T09:08:46.394Z,26.30
2019-05-17T09:11:19.535Z,26.50
2019-05-17T09:13:57.562Z,26.70
2019-05-17T09:16:22.785Z,27.00
2019-05-17T09:18:53.401Z,27.20
2019-05-17T09:21:24.192Z,27.50
2019-05-17T09:23:54.765Z,27.70
2019-05-17T09:26:25.430Z,27.90
2019-05-17T09:28:56.401Z,28.10
2019-05-17T09:31:26.979Z,28.30
2019-05-17T09:33:59.873Z,28.50
2019-05-17T09:36:30.457Z,28.80
2019-05-17T09:39:01.661Z,29.00
2019-05-17T09:41:33.962Z,29.20
2019-05-17T09:44:13.032Z,29.50
2019-05-17T09:46:36.893Z,29.70
2019-05-17T09:49:10.490Z,29.90
2019-05-17T09:51:41.066Z,30.10
2019-05-17T09:54:12.243Z,30.30
2019-05-17T09:56:43.110Z,30.50
2019-05-17T09:59:13.938Z,30.70
2019-05-17T10:01:44.749Z,30.90
2019-05-17T10:04:15.569Z,31.10
2019-05-17T10:06:46.782Z,31.20
2019-05-17T10:09:19.580Z,31.50
2019-05-17T10:11:51.090Z,31.60
2019-05-17T10:14:27.673Z,31.70
2019-05-17T10:16:54.595Z,31.80
2019-05-17T10:19:25.400Z,31.80
2019-05-17T10:21:55.997Z,31.40
2019-05-17T10:24:36.012Z,30.80
2019-05-17T10:26:59.589Z,30.50
2019-05-17T10:29:31.592Z,30.10
2019-05-17T10:32:02.149Z,29.80
2019-05-17T10:34:32.933Z,29.70
2019-05-17T10:37:04.098Z,29.40
2019-05-17T10:39:34.635Z,29.50
2019-05-17T10:42:05.408Z,29.40
2019-05-17T10:44:46.291Z,29.10
2019-05-17T10:47:10.053Z,28.90
2019-05-17T10:49:40.966Z,28.90
2019-05-17T10:52:12.622Z,29.00
2019-05-17T10:54:43.585Z,29.40
2019-05-17T10:57:14.437Z,29.50
2019-05-17T10:59:45.022Z,29.40
2019-05-17T11:02:15.648Z,29.50
2019-05-17T11:04:46.209Z,29.50
2019-05-17T11:07:19.784Z,29.40
2019-05-17T11:09:51.358Z,29.50
2019-05-17T11:12:22.173Z,29.20
2019-05-17T11:15:09.836Z,29.10
2019-05-17T11:17:25.105Z,29.20
2019-05-17T11:19:55.992Z,29.20
2019-05-17T11:22:26.806Z,29.20
2019-05-17T11:24:57.398Z,29.20
2019-05-17T11:27:28.143Z,29.30
2019-05-17T11:29:59.011Z,29.30
2019-05-17T11:32:29.870Z,29.20
2019-05-17T11:35:02.482Z,29.20
2019-05-17T11:37:33.343Z,29.00
2019-05-17T11:40:07.868Z,29.10
2019-05-17T11:42:36.731Z,29.00
2019-05-17T11:45:08.338Z,29.00
2019-05-17T11:47:39.205Z,29.00
2019-05-17T11:50:10.180Z,28.60
2019-05-17T11:52:40.596Z,28.50
2019-05-17T11:55:12.842Z,28.30
2019-05-17T11:57:44.629Z,28.10
2019-05-17T12:00:17.316Z,28.10
2019-05-17T12:02:47.970Z,28.00
2019-05-17T12:05:18.473Z,27.80
2019-05-17T12:07:49.632Z,27.80
2019-05-17T12:10:20.762Z,27.80
2019-05-17T12:12:51.562Z,27.70
2019-05-17T12:15:22.370Z,27.50
2019-05-17T12:17:53.179Z,27.30
2019-05-17T12:20:24.331Z,27.20
2019-05-17T12:22:55.278Z,27.00
2019-05-17T12:25:25.773Z,27.00
2019-05-17T12:27:56.859Z,26.80
2019-05-17T12:30:27.699Z,26.70
2019-05-17T12:32:58.501Z,26.70
2019-05-17T12:35:29.235Z,26.70
2019-05-17T12:38:00.174Z,26.50
2019-05-17T12:40:30.807Z,26.50
2019-05-17T12:43:01.852Z,26.50
2019-05-17T12:45:32.499Z,26.50
2019-05-17T12:48:03.291Z,26.40
2019-05-17T12:50:33.883Z,26.30
2019-05-17T12:53:04.658Z,26.20
2019-05-17T12:55:35.203Z,26.10
2019-05-17T12:58:05.998Z,26.00
2019-05-17T13:00:36.977Z,26.00
2019-05-17T13:03:07.757Z,25.60
2019-05-17T13:05:38.568Z,25.60
2019-05-17T13:08:09.345Z,25.60
2019-05-17T13:10:40.019Z,25.50
2019-05-17T13:13:10.786Z,25.40
2019-05-17T13:15:41.852Z,25.40
2019-05-17T13:18:12.811Z,25.40
2019-05-17T13:20:43.375Z,25.40
2019-05-17T13:23:14.327Z,25.30
2019-05-17T13:25:45.493Z,25.30
2019-05-17T13:28:16.131Z,25.30
2019-05-17T13:30:47.889Z,25.10
2019-05-17T13:33:18.410Z,25.10
2019-05-17T13:35:49.185Z,25.10
2019-05-17T13:38:20.062Z,25.20
2019-05-17T13:40:50.775Z,25.10
2019-05-17T13:43:21.477Z,25.10
2019-05-17T13:45:54.355Z,25.10
2019-05-17T13:48:24.963Z,25.10
2019-05-17T13:50:55.735Z,25.00
2019-05-17T13:53:26.560Z,24.80
2019-05-17T13:55:57.218Z,24.70
2019-05-17T13:58:28.250Z,24.60
2019-05-17T14:00:58.892Z,24.40
2019-05-17T14:03:29.997Z,24.30
2019-05-17T14:06:00.849Z,24.20
2019-05-17T14:08:31.406Z,24.10
2019-05-17T14:11:03.217Z,24.00
2019-05-17T14:13:34.098Z,23.90
2019-05-17T14:16:04.812Z,23.80
2019-05-17T14:18:35.838Z,23.80
2019-05-17T14:21:06.722Z,23.70
2019-05-17T14:23:37.282Z,23.70
2019-05-17T14:26:08.078Z,23.60
2019-05-17T14:28:38.885Z,23.50
2019-05-17T14:31:09.534Z,23.30
2019-05-17T14:33:40.232Z,23.20
2019-05-17T14:36:11.062Z,23.20
2019-05-17T14:38:42.663Z,23.20
2019-05-17T14:41:13.144Z,23.20
2019-05-17T14:43:44.084Z,23.20
2019-05-17T14:46:14.941Z,23.20
2019-05-17T14:48:46.031Z,23.30
2019-05-17T14:51:17.024Z,23.20
2019-05-17T14:53:47.902Z,23.20
2019-05-17T14:56:18.750Z,23.20
2019-05-17T14:58:49.523Z,23.30
2019-05-17T15:01:20.180Z,23.30
2019-05-17T15:03:51.259Z,23.30
2019-05-17T15:06:22.045Z,23.30
2019-05-17T15:08:52.952Z,23.30
2019-05-17T15:11:23.725Z,23.20
2019-05-17T15:13:54.544Z,23.10
2019-05-17T15:16:25.659Z,23.00
2019-05-17T15:18:56.421Z,23.00
2019-05-17T15:21:27.160Z,22.90
2019-05-17T15:23:57.714Z,22.80
2019-05-17T15:26:28.562Z,22.70
2019-05-17T15:28:59.059Z,22.50
2019-05-17T15:31:29.818Z,22.40
2019-05-17T15:34:00.447Z,22.30
2019-05-17T15:36:31.485Z,22.20
2019-05-17T15:39:02.339Z,22.20
2019-05-17T15:41:34.702Z,22.10
2019-05-17T15:44:05.944Z,22.00
2019-05-17T15:46:36.653Z,22.00
2019-05-17T15:49:07.389Z,22.00
2019-05-17T15:51:38.341Z,22.00
2019-05-17T15:54:09.167Z,21.90
2019-05-17T15:56:40.115Z,21.90
2019-05-17T15:59:10.638Z,21.90
2019-05-17T16:01:41.682Z,21.90
2019-05-17T16:04:12.290Z,21.90
2019-05-17T16:06:43.409Z,21.90
2019-05-17T16:09:13.965Z,21.80
2019-05-17T16:11:44.723Z,21.80
2019-05-17T16:14:15.653Z,21.70
2019-05-17T16:16:46.746Z,21.70
2019-05-17T16:19:17.547Z,21.60
2019-05-17T16:21:48.642Z,21.60
2019-05-17T16:24:19.521Z,21.60
2019-05-17T16:26:50.154Z,21.60
2019-05-17T16:29:22.533Z,21.60
2019-05-17T16:31:53.279Z,21.50
2019-05-17T16:34:23.958Z,21.40
2019-05-17T16:36:54.677Z,21.40
2019-05-17T16:39:25.263Z,21.40
2019-05-17T16:41:56.027Z,21.40
2019-05-17T16:44:26.922Z,21.30
2019-05-17T16:46:57.674Z,21.10
2019-05-17T16:49:28.626Z,21.00
2019-05-17T16:51:59.514Z,20.80
2019-05-17T16:54:29.998Z,20.70
2019-05-17T16:57:00.624Z,20.60
2019-05-17T16:59:31.246Z,20.40
2019-05-17T17:02:02.085Z,20.30
2019-05-17T17:04:33.650Z,20.20
2019-05-17T17:07:04.287Z,20.10
2019-05-17T17:09:35.225Z,20.10
2019-05-17T17:12:06.183Z,20.00
2019-05-17T17:14:37.931Z,19.90
2019-05-17T17:17:11.269Z,19.90
2019-05-17T17:19:41.407Z,19.90
2019-05-17T17:22:12.478Z,19.90
2019-05-17T17:24:43.165Z,19.80
2019-05-17T17:27:14.233Z,19.80
2019-05-17T17:29:44.781Z,19.80
2019-05-17T17:32:21.600Z,19.70
2019-05-17T17:34:47.886Z,19.60
2019-05-17T17:37:18.501Z,19.70
2019-05-17T17:39:49.274Z,19.60
2019-05-17T17:42:20.086Z,19.60
2019-05-17T17:44:50.974Z,19.50
2019-05-17T17:47:21.956Z,19.50
2019-05-17T17:49:52.429Z,19.40
2019-05-17T17:52:23.545Z,19.40
2019-05-17T17:54:54.365Z,19.30
2019-05-17T17:57:24.888Z,19.30
2019-05-17T17:59:55.839Z,19.20
2019-05-17T18:02:27.021Z,19.10
2019-05-17T18:04:57.621Z,19.00
2019-05-17T18:07:28.463Z,18.90
2019-05-17T18:10:00.534Z,18.80
2019-05-17T18:12:31.376Z,18.80
2019-05-17T18:15:04.459Z,18.70
2019-05-17T18:17:39.311Z,18.70
2019-05-17T18:20:07.257Z,18.60
2019-05-17T18:22:38.102Z,18.60
2019-05-17T18:25:08.914Z,18.40
2019-05-17T18:27:39.767Z,18.30
2019-05-17T18:30:11.136Z,18.20
2019-05-17T18:32:41.863Z,18.10
2019-05-17T18:35:13.128Z,18.00
2019-05-17T18:37:44.041Z,18.00
2019-05-17T18:40:15.177Z,17.90
2019-05-17T18:42:46.012Z,17.90
2019-05-17T18:45:16.914Z,17.80
2019-05-17T18:47:50.393Z,17.80
2019-05-17T18:50:20.095Z,17.70
2019-05-17T18:52:50.695Z,17.60
2019-05-17T18:55:22.369Z,17.50
2019-05-17T18:57:53.069Z,17.40
2019-05-17T19:00:23.777Z,17.30
2019-05-17T19:02:54.328Z,17.20
2019-05-17T19:05:25.539Z,17.10
2019-05-17T19:07:56.014Z,17.00
2019-05-17T19:10:26.779Z,17.00
2019-05-17T19:12:57.441Z,16.90
2019-05-17T19:15:28.456Z,16.80
2019-05-17T19:17:59.132Z,16.70
2019-05-17T19:20:29.854Z,16.70
2019-05-17T19:23:01.893Z,16.60
2019-05-17T19:25:32.774Z,16.50
2019-05-17T19:28:03.413Z,16.40
2019-05-17T19:30:34.174Z,16.40
2019-05-17T19:33:04.958Z,16.30
2019-05-17T19:35:35.746Z,16.30
2019-05-17T19:38:06.490Z,16.20
2019-05-17T19:40:37.418Z,16.20
2019-05-17T19:43:08.063Z,16.10
2019-05-17T19:45:38.804Z,16.10
2019-05-17T19:48:09.745Z,16.00
2019-05-17T19:50:40.573Z,15.90
2019-05-17T19:53:11.090Z,15.80
2019-05-17T19:55:41.895Z,15.70
2019-05-17T19:58:12.702Z,15.60
2019-05-17T20:00:43.565Z,15.50
2019-05-17T20:03:14.987Z,15.50
2019-05-17T20:05:45.779Z,15.40
2019-05-17T20:08:16.440Z,15.40
2019-05-17T20:10:51.911Z,15.30
2019-05-17T20:13:23.639Z,15.30
2019-05-17T20:15:54.415Z,15.20
2019-05-17T20:18:24.976Z,15.20
2019-05-17T20:20:55.813Z,15.10
2019-05-17T20:23:26.569Z,15.00
2019-05-17T20:25:57.515Z,15.00
2019-05-17T20:28:28.024Z,14.90
2019-05-17T20:30:58.573Z,14.80
2019-05-17T20:33:29.632Z,14.80
2019-05-17T20:36:00.464Z,14.70
2019-05-17T20:38:31.300Z,14.70
2019-05-17T20:41:01.989Z,14.60
2019-05-17T20:43:33.257Z,14.60
2019-05-17T20:46:03.985Z,14.50
2019-05-17T20:48:34.641Z,14.50
2019-05-17T20:51:05.354Z,14.40
2019-05-17T20:53:36.390Z,14.40
2019-05-17T20:56:06.970Z,14.30
2019-05-17T20:58:37.683Z,14.30
2019-05-17T21:01:08.306Z,14.30
2019-05-17T21:03:39.144Z,14.20
2019-05-17T21:06:09.957Z,14.20
2019-05-17T21:08:45.930Z,14.10
2019-05-17T21:11:13.180Z,14.10
2019-05-17T21:13:43.933Z,14.00
2019-05-17T21:16:14.602Z,14.00
2019-05-17T21:18:45.435Z,14.00
2019-05-17T21:21:15.917Z,14.00
2019-05-17T21:23:46.677Z,13.90
2019-05-17T21:26:17.538Z,13.90
2019-05-17T21:28:48.659Z,13.80
2019-05-17T21:31:19.518Z,13.80
2019-05-17T21:33:50.117Z,13.70
2019-05-17T21:36:20.660Z,13.60
2019-05-17T21:38:51.378Z,13.60
2019-05-17T21:41:21.993Z,13.60
2019-05-17T21:43:52.790Z,13.50
2019-05-17T21:46:24.782Z,13.50
2019-05-17T21:48:55.426Z,13.40
2019-05-17T21:51:25.960Z,13.40
2019-05-17T21:53:56.722Z,13.30
2019-05-17T21:56:27.569Z,13.30
2019-05-17T21:58:58.434Z,13.30
2019-05-17T22:01:30.792Z,13.30
2019-05-17T22:04:01.585Z,13.30
2019-05-17T22:06:32.197Z,13.30
2019-05-17T22:09:05.077Z,13.20
2019-05-17T22:11:36.473Z,13.20
2019-05-17T22:14:07.465Z,13.20
2019-05-17T22:16:38.037Z,13.20
2019-05-17T22:19:08.776Z,13.10
2019-05-17T22:21:39.402Z,13.10
2019-05-17T22:24:09.960Z,13.10
2019-05-17T22:26:40.463Z,13.10
2019-05-17T22:29:11.252Z,13.00
2019-05-17T22:31:41.866Z,13.00
2019-05-17T22:34:12.358Z,13.00
2019-05-17T22:36:43.094Z,12.90
2019-05-17T22:39:13.710Z,13.00
2019-05-17T22:41:44.766Z,12.90
2019-05-17T22:44:15.851Z,12.90
2019-05-17T22:46:46.761Z,12.90
2019-05-17T22:49:17.433Z,12.90
2019-05-17T22:51:48.421Z,12.90
2019-05-17T22:54:19.177Z,12.90
2019-05-17T22:56:49.866Z,12.90
2019-05-17T22:59:20.657Z,13.00
2019-05-17T23:01:51.261Z,13.00
2019-05-17T23:04:21.789Z,13.00
2019-05-17T23:06:52.532Z,13.00
2019-05-17T23:09:24.314Z,13.00
2019-05-17T23:11:55.572Z,13.00
2019-05-17T23:14:26.418Z,13.00
2019-05-17T23:16:57.525Z,13.00
2019-05-17T23:19:28.259Z,13.10
2019-05-17T23:21:58.897Z,13.10
2019-05-17T23:24:29.637Z,13.10
2019-05-17T23:27:01.393Z,13.10
2019-05-17T23:29:32.026Z,13.10
2019-05-17T23:32:02.790Z,13.10
2019-05-17T23:34:33.585Z,13.10
2019-05-17T23:37:04.442Z,13.10
2019-05-17T23:39:35.317Z,13.10
2019-05-17T23:42:06.435Z,13.10
2019-05-17T23:44:36.965Z,13.20
2019-05-17T23:47:07.811Z,13.20
2019-05-17T23:49:38.549Z,13.20
2019-05-17T23:52:09.457Z,13.20
2019-05-17T23:54:40.289Z,13.10
2019-05-17T23:57:10.951Z,13.20
2019-05-17T23:59:41.858Z,13.10
